Time;durP1;ratioP1;P1;durP2;ratioP2;P2;SDS_P1;SDS_P2;PMS_P1;PMS_P2;Temp;Humidity;BMP_temperature;BMP_pressure;BME280_temperature;BME280_humidity;BME280_pressure;Samples;Min_cycle;Max_cycle;Signal;HPM_P1;HPM_P2
2023/08/24 00:00:26;193411.00;0.64;334.58;38154.00;0.13;66.69;;;;;24.20;1.00;;;;;;2276329;61;1037;-86
2023/08/24 00:02:53;515684.00;1.72;888.83;78305.00;0.26;136.11;;;;;24.20;1.00;;;;;;2276573;61;1090;-85
2023/08/24 00:05:22;250070.00;0.83;432.07;51082.00;0.17;89.06;;;;;24.30;1.00;;;;;;2276225;61;1923;-85
2023/08/24 00:07:49;219108.00;0.73;378.81;0.00;0.00;0.62;;;;;24.30;1.00;;;;;;2278084;55;3772;-85
2023/08/24 00:12:48;1126962.00;3.76;1958.71;0.00;0.00;0.62;;;;;24.20;1.00;;;;;;2332552;40;3514;-85
2023/08/24 00:15:16;519023.00;1.73;894.58;0.00;0.00;0.62;;;;;24.20;1.00;;;;;;2308037;40;3736;-86
2023/08/24 00:17:44;222797.00;0.74;385.16;0.00;0.00;0.62;;;;;24.30;1.00;;;;;;2276337;61;1726;-85
2023/08/24 00:20:13;136569.00;0.46;236.66;0.00;0.00;0.62;;;;;24.00;1.00;;;;;;2276151;61;1551;-87
2023/08/24 00:22:40;428176.00;1.43;738.25;0.00;0.00;0.62;;;;;24.00;1.00;;;;;;2296834;40;3727;-86
2023/08/24 00:25:08;399763.00;1.33;689.40;0.00;0.00;0.62;;;;;24.10;1.00;;;;;;2290198;40;3650;-87
2023/08/24 00:30:09;1027181.00;3.42;1780.67;0.00;0.00;0.62;;;;;23.50;1.00;;;;;;2274086;61;1379;-86
2023/08/24 00:32:37;516246.00;1.72;889.80;95916.00;0.32;166.52;;;;;23.30;1.00;;;;;;2342782;40;3751;-84
2023/08/24 00:35:07;1267817.00;4.23;2213.33;26305.00;0.09;46.19;;;;;23.40;1.00;;;;;;2277139;61;1684;-85
2023/08/24 00:37:34;538151.00;1.79;927.54;0.00;0.00;0.62;;;;;23.40;1.00;;;;;;2338000;40;3656;-84
2023/08/24 00:40:04;317592.00;1.06;548.16;55696.00;0.19;97.04;;;;;23.50;1.00;;;;;;2276932;61;1724;-86
2023/08/24 00:42:32;105059.00;0.35;182.30;0.00;0.00;0.62;;;;;23.40;1.00;;;;;;2277003;61;1710;-87
2023/08/24 00:44:59;489940.00;1.63;844.51;27339.00;0.09;47.98;;;;;23.50;1.00;;;;;;2277013;61;2004;-85
2023/08/24 00:47:27;241870.00;0.81;417.97;0.00;0.00;0.62;;;;;23.60;1.00;;;;;;2277110;61;1761;-85
2023/08/24 00:49:55;443463.00;1.48;764.54;137703.00;0.46;238.61;;;;;23.70;1.00;;;;;;2297589;55;3791;-86
2023/08/24 00:52:25;1941360.00;6.47;3504.60;873513.00;2.91;1509.65;;;;;23.60;1.00;;;;;;2277026;61;975;-86
2023/08/24 00:54:52;2431130.00;8.10;4550.43;1168825.00;3.90;2033.96;;;;;23.50;1.00;;;;;;2276885;61;1578;-87
2023/08/24 00:57:20;318420.00;1.06;549.58;106817.00;0.36;185.34;;;;;23.40;1.00;;;;;;2277007;61;1072;-85
2023/08/24 00:59:47;325293.00;1.08;561.40;0.00;0.00;0.62;;;;;23.60;1.00;;;;;;2277032;61;1772;-84
2023/08/24 01:02:14;435471.00;1.45;750.79;92022.00;0.31;159.80;;;;;23.70;1.00;;;;;;2303652;39;3743;-85
2023/08/24 01:04:43;3989476.00;13.30;8830.59;1999366.00;6.66;3623.02;;;;;23.50;1.00;;;;;;2289896;40;3589;-85
2023/08/24 01:07:11;406772.00;1.36;701.45;108370.00;0.36;188.02;;;;;23.20;1.00;;;;;;2276857;61;1101;-86
2023/08/24 01:09:40;461387.00;1.54;795.37;108625.00;0.36;188.46;;;;;23.10;1.00;;;;;;2277036;61;916;-86
2023/08/24 01:12:21;252033.00;0.84;435.45;0.00;0.00;0.62;;;;;23.30;1.00;;;;;;2277091;61;1122;-87
2023/08/24 01:14:56;901803.00;3.01;1559.29;39606.00;0.13;69.21;;;;;23.40;1.00;;;;;;2292240;55;3763;-85
2023/08/24 01:17:28;934443.00;3.11;1616.70;738.00;0.00;1.90;;;;;23.30;1.00;;;;;;2276658;61;1864;-85
2023/08/24 01:19:58;178321.00;0.59;308.60;0.00;0.00;0.62;;;;;23.20;1.00;;;;;;2276973;61;1570;-85
2023/08/24 01:22:38;1997266.00;6.66;3618.71;499429.00;1.66;860.84;;;;;23.20;1.00;;;;;;2276938;61;1492;-85
2023/08/24 01:25:15;1547401.00;5.16;2732.63;272913.00;0.91;471.35;;;;;22.90;1.00;;;;;;2292843;39;3746;-86
2023/08/24 01:27:44;2329056.00;7.76;4323.33;938066.00;3.13;1623.08;;;;;23.00;1.00;;;;;;2276827;61;1409;-86
2023/08/24 01:30:12;1763089.00;5.88;3148.67;651695.00;2.17;1123.57;;;;;23.10;1.00;;;;;;2276966;61;1133;-85
2023/08/24 01:32:40;209960.00;0.70;363.07;18303.00;0.06;32.33;;;;;22.80;1.00;;;;;;2280215;55;3746;-86
2023/08/24 01:35:09;291753.00;0.97;503.74;0.00;0.00;0.62;;;;;22.40;1.00;;;;;;2276691;61;1714;-87
2023/08/24 01:37:38;302479.00;1.01;522.18;22357.00;0.07;39.35;;;;;22.50;1.10;;;;;;2276892;61;1205;-86
2023/08/24 01:40:09;427094.00;1.42;736.39;48773.00;0.16;85.06;;;;;22.80;1.00;;;;;;2276787;61;1596;-86
2023/08/24 01:42:39;93595.00;0.31;162.51;0.00;0.00;0.62;;;;;22.80;1.00;;;;;;2276838;61;1117;-86
2023/08/24 01:45:11;218051.00;0.73;376.99;10545.00;0.04;18.89;;;;;22.80;1.00;;;;;;2276715;61;2014;-85
2023/08/24 01:47:42;214896.00;0.72;371.56;0.00;0.00;0.62;;;;;22.80;1.00;;;;;;2316398;40;3724;-85
2023/08/24 01:50:10;156484.00;0.52;270.98;0.00;0.00;0.62;;;;;23.10;1.00;;;;;;2287538;55;3755;-86
2023/08/24 01:52:37;157621.00;0.53;272.94;0.00;0.00;0.62;;;;;23.10;1.00;;;;;;2276881;61;1172;-87
2023/08/24 01:55:05;147660.00;0.49;255.77;0.00;0.00;0.62;;;;;23.00;1.00;;;;;;2276587;61;1609;-87
2023/08/24 01:57:32;205920.00;0.69;356.11;0.00;0.00;0.62;;;;;22.90;1.00;;;;;;2276755;61;1071;-86
2023/08/24 02:00:00;489603.00;1.63;843.93;30986.00;0.10;54.29;;;;;22.80;1.00;;;;;;2276685;61;1088;-84
2023/08/24 02:02:28;175721.00;0.59;304.12;0.00;0.00;0.62;;;;;22.60;1.00;;;;;;2276799;61;1212;-86
2023/08/24 02:04:55;464572.00;1.55;800.85;155449.00;0.52;269.20;;;;;22.50;1.10;;;;;;2276790;61;2018;-86
2023/08/24 02:09:54;1199531.00;4.00;2089.37;52781.00;0.18;92.00;;;;;22.80;1.10;;;;;;2278555;61;1402;-86
2023/08/24 02:12:21;359529.00;1.20;620.24;59076.00;0.20;102.88;;;;;22.80;1.00;;;;;;2276854;61;1631;-85
2023/08/24 02:14:48;207568.00;0.69;358.95;75897.00;0.25;131.95;;;;;22.90;1.00;;;;;;2276559;61;1722;-86
2023/08/24 02:17:15;199650.00;0.67;345.32;38681.00;0.13;67.61;;;;;22.90;1.00;;;;;;2276770;61;1256;-86
2023/08/24 02:19:44;181795.00;0.61;314.58;0.00;0.00;0.62;;;;;22.80;1.00;;;;;;2276758;61;1134;-87
2023/08/24 02:22:11;523509.00;1.75;902.31;90703.00;0.30;157.52;;;;;22.50;1.10;;;;;;2276669;61;966;-89
2023/08/24 02:24:37;818110.00;2.73;1412.73;57250.00;0.19;99.72;;;;;22.30;2.00;;;;;;2276749;61;1291;-86
2023/08/24 02:27:05;264676.00;0.88;457.19;0.00;0.00;0.62;;;;;22.40;1.60;;;;;;2276717;61;2005;-86
2023/08/24 02:29:32;158285.00;0.53;274.08;0.00;0.00;0.62;;;;;22.40;1.30;;;;;;2276696;61;1606;-86
2023/08/24 02:31:59;201354.00;0.67;348.25;0.00;0.00;0.62;;;;;22.40;2.10;;;;;;2288515;55;3773;-84
2023/08/24 02:34:26;262529.00;0.88;453.50;0.00;0.00;0.62;;;;;22.60;1.10;;;;;;2276854;61;1399;-86
2023/08/24 02:36:54;112435.00;0.37;195.03;0.00;0.00;0.62;;;;;22.60;1.70;;;;;;2276784;61;1378;-85
2023/08/24 02:39:21;507137.00;1.69;874.11;10695.00;0.04;19.15;;;;;22.80;1.00;;;;;;2276613;61;1326;-84
2023/08/24 02:41:48;440131.00;1.47;758.81;140842.00;0.47;244.02;;;;;22.90;1.00;;;;;;2278795;55;3764;-85
2023/08/24 02:44:15;212552.00;0.71;367.53;43161.00;0.14;75.36;;;;;22.90;1.00;;;;;;2276676;61;1585;-86
2023/08/24 02:46:45;179963.00;0.60;311.43;0.00;0.00;0.62;;;;;22.60;1.00;;;;;;2276675;61;1911;-86
2023/08/24 02:49:12;128001.00;0.43;221.88;0.00;0.00;0.62;;;;;22.30;1.50;;;;;;2276559;61;1021;-86
2023/08/24 02:51:39;274770.00;0.92;474.55;0.00;0.00;0.62;;;;;22.30;1.90;;;;;;2276713;61;1024;-86
2023/08/24 02:54:07;140064.00;0.47;242.68;0.00;0.00;0.62;;;;;22.40;1.00;;;;;;2276587;61;1272;-85
2023/08/24 02:56:34;297060.00;0.99;512.87;0.00;0.00;0.62;;;;;22.60;1.00;;;;;;2276764;61;968;-84
2023/08/24 02:59:01;285041.00;0.95;492.20;6859.00;0.02;12.51;;;;;22.40;2.10;;;;;;2276461;61;895;-86
2023/08/24 03:01:29;146975.00;0.49;254.59;0.00;0.00;0.62;;;;;22.30;2.30;;;;;;2276689;61;1062;-85
2023/08/24 03:03:55;274589.00;0.92;474.23;0.00;0.00;0.62;;;;;22.30;2.30;;;;;;2276797;61;1872;-85
2023/08/24 03:06:23;261851.00;0.87;452.33;15490.00;0.05;27.46;;;;;22.50;2.20;;;;;;2276918;61;1910;-84
2023/08/24 03:08:50;122815.00;0.41;212.94;0.00;0.00;0.62;;;;;22.70;1.40;;;;;;2276989;61;1084;-84
2023/08/24 03:11:19;147043.00;0.49;254.71;0.00;0.00;0.62;;;;;22.80;1.00;;;;;;2276973;61;1698;-87
2023/08/24 03:13:46;297639.00;0.99;513.86;0.00;0.00;0.62;;;;;22.90;1.00;;;;;;2276916;61;2358;-85
2023/08/24 03:16:13;189706.00;0.63;328.20;0.00;0.00;0.62;;;;;22.90;1.00;;;;;;2276826;61;1564;-85
2023/08/24 03:18:40;301780.00;1.01;520.98;0.00;0.00;0.62;;;;;22.90;1.00;;;;;;2276958;61;1170;-85
2023/08/24 03:21:07;215610.00;0.72;372.79;0.00;0.00;0.62;;;;;22.70;1.00;;;;;;2276970;61;1054;-84
2023/08/24 03:23:34;316651.00;1.06;546.54;0.00;0.00;0.62;;;;;22.70;1.00;;;;;;2276973;61;1572;-85
2023/08/24 03:26:01;290818.00;0.97;502.14;0.00;0.00;0.62;;;;;22.90;1.00;;;;;;2276881;61;1914;-87
2023/08/24 03:28:29;442827.00;1.48;763.44;160514.00;0.54;277.92;;;;;22.70;1.00;;;;;;2276938;61;967;-85
2023/08/24 03:30:56;247702.00;0.83;428.00;10349.00;0.03;18.55;;;;;22.80;1.00;;;;;;2276928;61;1036;-85
2023/08/24 03:33:23;177345.00;0.59;306.92;0.00;0.00;0.62;;;;;22.60;1.00;;;;;;2276892;61;1145;-85
2023/08/24 03:38:21;829912.00;2.77;1433.34;0.00;0.00;0.62;;;;;22.30;2.80;;;;;;2278623;61;1410;-87
2023/08/24 03:40:48;195292.00;0.65;337.82;0.00;0.00;0.62;;;;;22.30;1.70;;;;;;2276875;61;1172;-86
2023/08/24 03:43:15;344695.00;1.15;594.74;0.00;0.00;0.62;;;;;22.30;1.10;;;;;;2276914;61;1798;-84
2023/08/24 03:45:44;199064.00;0.66;344.31;0.00;0.00;0.62;;;;;22.60;1.00;;;;;;2276793;61;1914;-84
2023/08/24 03:48:11;202717.00;0.68;350.60;64692.00;0.22;112.59;;;;;22.50;1.10;;;;;;2276799;61;955;-85
2023/08/24 03:50:38;161765.00;0.54;280.08;0.00;0.00;0.62;;;;;22.50;1.20;;;;;;2276900;61;1044;-85
2023/08/24 03:53:07;216255.00;0.72;373.90;0.00;0.00;0.62;;;;;22.60;1.10;;;;;;2276902;61;1056;-85
2023/08/24 03:55:34;275431.00;0.92;475.68;0.00;0.00;0.62;;;;;22.70;1.00;;;;;;2276744;61;1599;-85
2023/08/24 03:58:01;391418.00;1.30;675.05;31445.00;0.10;55.08;;;;;22.60;1.00;;;;;;2276905;61;1051;-85
2023/08/24 04:00:28;167099.00;0.56;289.27;0.00;0.00;0.62;;;;;22.60;1.50;;;;;;2276733;61;1044;-85
2023/08/24 04:02:56;355511.00;1.19;613.33;37295.00;0.12;65.21;;;;;22.60;1.00;;;;;;2276965;61;1117;-85
2023/08/24 04:05:23;237979.00;0.79;411.27;0.00;0.00;0.62;;;;;22.60;1.30;;;;;;2276755;61;1994;-85
2023/08/24 04:07:50;163486.00;0.54;283.05;0.00;0.00;0.62;;;;;22.70;1.00;;;;;;2276761;61;1196;-86
2023/08/24 04:10:17;173180.00;0.58;299.74;0.00;0.00;0.62;;;;;22.70;1.00;;;;;;2281897;40;3583;-86
2023/08/24 04:12:44;344741.00;1.15;594.82;66822.00;0.22;116.27;;;;;22.70;1.60;;;;;;2283822;56;3747;-84
2023/08/24 04:15:11;174263.00;0.58;301.61;0.00;0.00;0.62;;;;;22.60;1.00;;;;;;2276618;61;1605;-86
2023/08/24 04:17:38;466188.00;1.55;803.63;35565.00;0.12;62.21;;;;;22.30;1.40;;;;;;2276770;61;1002;-86
2023/08/24 04:20:08;309609.00;1.03;534.44;157562.00;0.53;272.84;;;;;22.20;1.90;;;;;;2276854;61;1103;-84
2023/08/24 04:22:35;2157672.00;7.19;3953.26;904715.00;3.02;1564.40;;;;;22.20;1.90;;;;;;2276637;61;1028;-85
2023/08/24 04:25:02;3892521.00;12.98;8510.74;1176189.00;3.92;2047.23;;;;;22.20;1.90;;;;;;2276600;61;1396;-86
2023/08/24 04:27:31;120659056.00;402.20;71160760.00;747366.00;2.49;1289.48;;;;;22.70;1.40;;;;;;2276648;61;1955;-85
2023/08/24 04:29:58;5079103.00;16.93;13053.32;2913194.00;9.71;5699.08;;;;;22.50;1.00;;;;;;2276769;61;1064;-85
2023/08/24 04:32:28;4150347.00;13.83;9379.87;751517.00;2.51;1296.70;;;;;22.30;2.10;;;;;;2276698;61;1625;-85
2023/08/24 04:34:55;399113.00;1.33;688.28;0.00;0.00;0.62;;;;;22.10;2.80;;;;;;2276707;61;1395;-86
2023/08/24 04:37:23;167049.00;0.56;289.18;0.00;0.00;0.62;;;;;22.10;3.30;;;;;;2276675;61;1128;-86
2023/08/24 04:39:50;163310.00;0.54;282.74;0.00;0.00;0.62;;;;;22.10;3.00;;;;;;2276846;61;1144;-87
2023/08/24 04:42:17;227838.00;0.76;393.83;0.00;0.00;0.62;;;;;22.20;2.80;;;;;;2276703;61;1615;-85
2023/08/24 04:44:44;390836.00;1.30;674.05;55484.00;0.18;96.67;;;;;22.20;2.80;;;;;;2276769;61;1376;-86
2023/08/24 04:47:11;206179.00;0.69;356.56;0.00;0.00;0.62;;;;;22.20;2.20;;;;;;2276773;61;2005;-86
2023/08/24 04:49:38;94092.00;0.31;163.37;0.00;0.00;0.62;;;;;21.90;3.40;;;;;;2276800;61;1357;-86
2023/08/24 04:52:05;160314.00;0.53;277.58;0.00;0.00;0.62;;;;;22.00;3.60;;;;;;2276454;61;1073;-86
2023/08/24 04:54:37;253923.00;0.85;438.70;0.00;0.00;0.62;;;;;22.50;2.20;;;;;;2276644;61;1409;-85
2023/08/24 04:57:04;1759590.00;5.87;3141.80;578233.00;1.93;996.65;;;;;22.30;1.90;;;;;;2276781;61;1058;-85
2023/08/24 04:59:31;194498.00;0.65;336.45;0.00;0.00;0.62;;;;;22.30;2.00;;;;;;2276645;61;1549;-85
2023/08/24 05:01:58;186850.00;0.62;323.28;0.00;0.00;0.62;;;;;22.30;2.40;;;;;;2276759;61;1125;-85
2023/08/24 05:04:25;914455.00;3.05;1581.52;0.00;0.00;0.62;;;;;22.40;2.40;;;;;;2283518;56;3989;-85
2023/08/24 05:06:52;351883.00;1.17;607.10;23544.00;0.08;41.41;;;;;22.70;1.90;;;;;;2276637;61;2008;-85
2023/08/24 05:09:19;166003.00;0.55;287.38;0.00;0.00;0.62;;;;;22.70;1.30;;;;;;2276720;61;1070;-86
2023/08/24 05:11:48;172291.00;0.57;298.21;0.00;0.00;0.62;;;;;22.50;2.20;;;;;;2276778;61;1086;-85
2023/08/24 05:14:14;195402.00;0.65;338.01;0.00;0.00;0.62;;;;;22.30;3.20;;;;;;2276660;61;1548;-85
2023/08/24 05:16:41;561394.00;1.87;967.60;355241.00;1.18;612.87;;;;;22.50;2.20;;;;;;2276521;61;1741;-85
2023/08/24 05:19:08;135943.00;0.45;235.58;0.00;0.00;0.62;;;;;22.40;2.40;;;;;;2276650;61;1067;-86
2023/08/24 05:21:35;197227.00;0.66;341.15;0.00;0.00;0.62;;;;;22.60;2.20;;;;;;2276706;61;1028;-85
2023/08/24 05:24:03;154467.00;0.51;267.51;0.00;0.00;0.62;;;;;22.70;2.10;;;;;;2277341;61;1742;-85
2023/08/24 05:26:30;28495.00;0.09;49.98;0.00;0.00;0.62;;;;;22.80;1.80;;;;;;2277248;61;2001;-85
2023/08/24 05:28:58;197055.00;0.66;340.85;0.00;0.00;0.62;;;;;22.60;2.20;;;;;;2277294;61;1049;-85
2023/08/24 05:31:25;375519.00;1.25;647.72;60486.00;0.20;105.32;;;;;22.70;2.30;;;;;;2277272;61;1204;-86
2023/08/24 05:33:52;713119.00;2.38;1230.00;198701.00;0.66;343.69;;;;;22.70;2.00;;;;;;2277266;61;1377;-86
2023/08/24 05:36:19;321030.00;1.07;554.07;59593.00;0.20;103.77;;;;;23.00;2.10;;;;;;2277249;61;1083;-85
2023/08/24 05:38:47;479132.00;1.60;825.90;72603.00;0.24;126.26;;;;;23.40;1.70;;;;;;2279782;39;3613;-85
2023/08/24 05:41:14;196590.00;0.66;340.05;33872.00;0.11;59.28;;;;;23.80;1.00;;;;;;2277267;61;1182;-84
2023/08/24 05:43:42;126692.00;0.42;219.62;0.00;0.00;0.62;;;;;24.00;1.00;;;;;;2277370;61;1383;-85
2023/08/24 05:46:10;164848.00;0.55;285.39;0.00;0.00;0.62;;;;;24.90;1.00;;;;;;2277271;61;1997;-85
2023/08/24 05:48:37;129507.00;0.43;224.48;0.00;0.00;0.62;;;;;25.40;1.00;;;;;;2277080;61;1058;-85
2023/08/24 05:51:06;1477784.00;4.93;2601.39;590046.00;1.97;1017.04;;;;;25.70;1.00;;;;;;2277278;61;1113;-85
2023/08/24 05:53:33;182137.00;0.61;315.17;0.00;0.00;0.62;;;;;25.70;1.00;;;;;;2277192;61;1639;-84
2023/08/24 05:55:59;472723.00;1.58;814.88;139675.00;0.47;242.01;;;;;25.70;1.00;;;;;;2277338;61;1083;-85
2023/08/24 05:58:26;224198.00;0.75;387.57;0.00;0.00;0.62;;;;;25.50;1.00;;;;;;2277244;61;1135;-83
2023/08/24 06:00:58;209694.00;0.70;362.61;0.00;0.00;0.62;;;;;25.30;1.00;;;;;;2277258;61;1146;-85
2023/08/24 06:03:26;724923.00;2.42;1250.49;82728.00;0.28;143.75;;;;;25.30;1.00;;;;;;2277086;61;1106;-85
2023/08/24 06:05:53;286896.00;0.96;495.39;0.00;0.00;0.62;;;;;25.70;1.00;;;;;;2277158;61;1418;-85
2023/08/24 06:08:20;136963.00;0.46;237.34;0.00;0.00;0.62;;;;;26.00;1.00;;;;;;2277188;61;1939;-85
2023/08/24 06:10:47;2859781.00;9.53;5565.12;769723.00;2.57;1328.37;;;;;26.90;1.00;;;;;;2277247;61;991;-85
2023/08/24 06:13:14;821366.00;2.74;1418.41;317442.00;1.06;547.90;;;;;27.40;1.00;;;;;;2277072;61;1684;-85
2023/08/24 06:15:42;1322747.00;4.41;2313.80;536780.00;1.79;925.17;;;;;27.00;1.00;;;;;;2277139;61;1268;-85
2023/08/24 06:18:09;336201.00;1.12;580.14;76778.00;0.26;133.47;;;;;27.00;1.00;;;;;;2277206;61;1126;-85
2023/08/24 06:20:37;263155.00;0.88;454.57;0.00;0.00;0.62;;;;;26.50;1.00;;;;;;2277303;61;1108;-87
2023/08/24 06:23:04;219164.00;0.73;378.91;0.00;0.00;0.62;;;;;26.10;1.00;;;;;;2277146;61;1046;-86
2023/08/24 06:25:31;171973.00;0.57;297.67;0.00;0.00;0.62;;;;;25.90;1.00;;;;;;2277174;61;1280;-86
2023/08/24 06:27:59;281324.00;0.94;485.81;0.00;0.00;0.62;;;;;26.00;1.00;;;;;;2277070;61;2010;-85
2023/08/24 06:30:26;151147.00;0.50;261.78;0.00;0.00;0.62;;;;;25.60;1.00;;;;;;2277209;61;1117;-85
2023/08/24 06:32:53;293893.00;0.98;507.42;0.00;0.00;0.62;;;;;25.20;1.00;;;;;;2276902;61;1165;-86
2023/08/24 06:37:49;968032.00;3.23;1675.93;0.00;0.00;0.62;;;;;25.30;1.00;;;;;;2279127;61;1448;-85
2023/08/24 06:40:17;1187554.00;3.96;2067.73;0.00;0.00;0.62;;;;;25.30;1.00;;;;;;2286376;56;3768;-85
2023/08/24 06:42:44;113577.00;0.38;197.00;0.00;0.00;0.62;;;;;25.10;1.00;;;;;;2277059;61;1729;-85
2023/08/24 06:45:11;598736.00;2.00;1032.04;185189.00;0.62;320.43;;;;;25.00;1.00;;;;;;2276968;61;1366;-86
2023/08/24 06:47:38;243971.00;0.81;421.58;0.00;0.00;0.62;;;;;25.10;1.00;;;;;;2287193;39;3480;-85
2023/08/24 06:50:05;335394.00;1.12;578.76;0.00;0.00;0.62;;;;;25.10;1.00;;;;;;2277018;61;1328;-83
2023/08/24 06:52:32;388961.00;1.30;670.83;46396.00;0.15;80.95;;;;;25.10;1.00;;;;;;2277042;61;1050;-84
2023/08/24 06:55:01;202281.00;0.67;349.85;0.00;0.00;0.62;;;;;25.20;1.00;;;;;;2277032;61;1327;-85
2023/08/24 06:57:27;160721.00;0.54;278.28;0.00;0.00;0.62;;;;;25.20;1.00;;;;;;2277047;61;1141;-85
2023/08/24 06:59:55;143470.00;0.48;248.55;0.00;0.00;0.62;;;;;25.00;1.00;;;;;;2276881;61;1121;-84
2023/08/24 07:02:22;311445.00;1.04;537.59;43173.00;0.14;75.38;;;;;25.10;1.00;;;;;;2276943;61;1165;-85
2023/08/24 07:04:49;321927.00;1.07;555.61;65101.00;0.22;113.29;;;;;25.10;1.00;;;;;;2276764;61;1380;-86
2023/08/24 07:07:16;497722.00;1.66;857.90;93416.00;0.31;162.21;;;;;25.10;1.00;;;;;;2276663;61;2002;-84
2023/08/24 07:09:43;358211.00;1.19;617.97;2598.00;0.01;5.12;;;;;25.30;1.00;;;;;;2276928;61;995;-85
2023/08/24 07:12:12;477233.00;1.59;822.64;35343.00;0.12;61.83;;;;;25.60;1.00;;;;;;2276858;61;1562;-84
2023/08/24 07:14:39;290585.00;0.97;501.74;0.00;0.00;0.62;;;;;25.50;1.00;;;;;;2276830;61;1819;-85
2023/08/24 07:17:07;325317.00;1.08;561.44;0.00;0.00;0.62;;;;;25.30;1.00;;;;;;2276865;61;1061;-84
2023/08/24 07:19:34;350089.00;1.17;604.01;82492.00;0.27;143.34;;;;;25.40;1.00;;;;;;2276753;61;1145;-84
2023/08/24 07:22:01;228821.00;0.76;395.52;49444.00;0.16;86.22;;;;;25.50;1.00;;;;;;2276810;61;1148;-86
2023/08/24 07:24:29;304250.00;1.01;525.23;0.00;0.00;0.62;;;;;25.60;1.00;;;;;;2276752;61;1293;-84
2023/08/24 07:26:56;120901.00;0.40;209.64;0.00;0.00;0.62;;;;;25.90;1.00;;;;;;2276822;61;1923;-84
2023/08/24 07:29:24;243789.00;0.81;421.27;0.00;0.00;0.62;;;;;25.80;1.00;;;;;;2276972;61;1743;-85
2023/08/24 07:31:51;156252.00;0.52;270.58;0.00;0.00;0.62;;;;;25.90;1.00;;;;;;2276964;61;1108;-86
2023/08/24 07:34:18;209966.00;0.70;363.08;0.00;0.00;0.62;;;;;26.10;1.00;;;;;;2276877;61;1539;-88
2023/08/24 07:36:48;215279.00;0.72;372.22;0.00;0.00;0.62;;;;;26.10;1.00;;;;;;2276897;61;1313;-87
2023/08/24 07:39:15;353637.00;1.18;610.11;52153.00;0.17;90.91;;;;;26.40;1.00;;;;;;2276923;61;1581;-88
2023/08/24 07:41:42;177552.00;0.59;307.27;45376.00;0.15;79.19;;;;;26.70;1.00;;;;;;2276902;61;968;-88
2023/08/24 07:44:09;284225.00;0.95;490.80;67511.00;0.23;117.46;;;;;26.90;1.00;;;;;;2276697;61;1581;-87
2023/08/24 07:46:40;234255.00;0.78;404.87;63599.00;0.21;110.70;;;;;27.10;1.00;;;;;;2276649;61;2010;-88
2023/08/24 07:49:07;337312.00;1.12;582.05;0.00;0.00;0.62;;;;;27.20;1.00;;;;;;2276672;61;1600;-88
2023/08/24 07:54:09;1215333.00;4.05;2117.97;0.00;0.00;0.62;;;;;27.70;1.00;;;;;;2278277;61;1411;-88
2023/08/24 07:56:37;345315.00;1.15;595.81;5587.00;0.02;10.30;;;;;28.30;1.00;;;;;;2324903;40;3794;-88
2023/08/24 07:59:04;351402.00;1.17;606.27;39992.00;0.13;69.87;;;;;29.30;1.00;;;;;;2276700;61;1619;-88
2023/08/24 08:01:34;738422.00;2.46;1273.93;0.00;0.00;0.62;;;;;30.10;1.00;;;;;;2291973;56;3832;-86
2023/08/24 08:04:02;125118.00;0.42;216.91;0.00;0.00;0.62;;;;;31.00;1.00;;;;;;2276765;61;1499;-87
2023/08/24 08:06:29;554950.00;1.85;956.49;142742.00;0.48;247.30;;;;;31.80;1.00;;;;;;2276874;61;1355;-87
2023/08/24 08:08:57;114342.00;0.38;198.32;0.00;0.00;0.62;;;;;32.00;1.00;;;;;;2276634;61;1926;-86
2023/08/24 08:11:24;420222.00;1.40;724.57;0.00;0.00;0.62;;;;;32.10;1.00;;;;;;2338757;40;3772;-90
2023/08/24 08:16:26;239017.00;0.80;413.06;0.00;0.00;0.62;;;;;33.10;1.00;;;;;;2326270;40;2964;-85
2023/08/24 08:18:53;203682.00;0.68;352.26;0.00;0.00;0.62;;;;;33.30;1.00;;;;;;2287852;55;3763;-86
2023/08/24 08:21:23;1893677.00;6.31;3408.24;983581.00;3.28;1703.41;;;;;33.60;1.00;;;;;;2292265;56;3814;-87
2023/08/24 08:23:50;447448.00;1.49;771.39;45319.00;0.15;79.09;;;;;33.70;1.00;;;;;;2286628;40;3760;-88
2023/08/24 08:26:17;134133.00;0.45;232.46;0.00;0.00;0.62;;;;;34.20;1.00;;;;;;2276791;61;957;-88
2023/08/24 08:28:45;425549.00;1.42;733.73;161087.00;0.54;278.91;;;;;34.40;1.00;;;;;;2281884;40;3439;-87
2023/08/24 08:31:12;295872.00;0.99;510.82;0.00;0.00;0.62;;;;;34.30;1.00;;;;;;2276702;61;1084;-87
2023/08/24 08:33:39;190578.00;0.64;329.70;0.00;0.00;0.62;;;;;34.70;1.00;;;;;;2276636;61;1299;-88
2023/08/24 08:36:06;366727.00;1.22;632.61;0.00;0.00;0.62;;;;;34.80;1.00;;;;;;2276625;61;1035;-87
2023/08/24 08:38:34;321476.00;1.07;554.84;92492.00;0.31;160.61;;;;;34.90;1.00;;;;;;2276692;61;1102;-88
2023/08/24 08:41:04;843058.00;2.81;1456.32;130835.00;0.44;226.77;;;;;34.80;1.00;;;;;;2284137;56;3810;-88
2023/08/24 08:43:31;162734.00;0.54;281.75;0.00;0.00;0.62;;;;;34.40;1.00;;;;;;2276686;61;1787;-88
2023/08/24 08:46:00;474404.00;1.58;817.77;118157.00;0.39;204.90;;;;;34.10;1.00;;;;;;2272527;61;1573;-86
2023/08/24 08:48:28;210518.00;0.70;364.03;0.00;0.00;0.62;;;;;33.90;1.00;;;;;;2272614;61;2012;-87
2023/08/24 08:50:56;440695.00;1.47;759.78;0.00;0.00;0.62;;;;;33.90;1.00;;;;;;2345225;40;3590;-85
2023/08/24 08:53:24;449451.00;1.50;774.84;37715.00;0.13;65.93;;;;;33.40;1.00;;;;;;2276610;61;1190;-87
2023/08/24 08:55:57;309527.00;1.03;534.30;7082.00;0.02;12.89;;;;;33.10;1.00;;;;;;2303604;56;3790;-85
2023/08/24 08:58:25;427576.00;1.43;737.22;183786.00;0.61;318.01;;;;;33.30;1.00;;;;;;2306159;40;3748;-87
2023/08/24 09:00:54;162353.00;0.54;281.09;0.00;0.00;0.62;;;;;33.20;1.00;;;;;;2277334;61;1070;-87
2023/08/24 09:03:21;160594.00;0.54;278.06;0.00;0.00;0.62;;;;;33.50;1.00;;;;;;2277306;61;942;-86
2023/08/24 09:05:48;339057.00;1.13;585.05;0.00;0.00;0.62;;;;;33.80;1.00;;;;;;2277254;61;1324;-87
2023/08/24 09:08:17;334739.00;1.12;577.63;0.00;0.00;0.62;;;;;33.80;1.00;;;;;;2286031;40;3613;-87
2023/08/24 09:10:44;925809.00;3.09;1601.49;0.00;0.00;0.62;;;;;32.90;1.00;;;;;;2278212;61;1672;-88
2023/08/24 09:13:13;125051.00;0.42;216.79;0.00;0.00;0.62;;;;;32.40;1.00;;;;;;2277419;61;1701;-87
2023/08/24 09:15:40;408511.00;1.36;704.44;37701.00;0.13;65.91;;;;;32.50;1.00;;;;;;2277198;61;1710;-87
2023/08/24 09:18:07;264363.00;0.88;456.65;0.00;0.00;0.62;;;;;32.70;1.00;;;;;;2296474;55;3786;-86
2023/08/24 09:20:35;61049.00;0.20;106.29;0.00;0.00;0.62;;;;;32.60;1.00;;;;;;2292727;40;3609;-87
2023/08/24 09:23:02;228469.00;0.76;394.91;0.00;0.00;0.62;;;;;32.30;1.00;;;;;;2277410;61;1078;-86
2023/08/24 09:25:29;142352.00;0.47;246.63;0.00;0.00;0.62;;;;;32.60;1.00;;;;;;2277281;61;1412;-90
2023/08/24 09:28:00;169759.00;0.57;293.85;0.00;0.00;0.62;;;;;32.40;1.00;;;;;;2277364;61;1998;-87
2023/08/24 09:30:37;88535.00;0.30;153.78;0.00;0.00;0.62;;;;;31.50;1.00;;;;;;2277431;61;1041;-87
2023/08/24 09:33:05;100813.00;0.34;174.98;0.00;0.00;0.62;;;;;31.30;1.00;;;;;;2322404;40;3591;-87
2023/08/24 09:35:37;34990.00;0.12;61.22;0.00;0.00;0.62;;;;;31.40;1.00;;;;;;2277392;61;1340;-87
2023/08/24 09:38:18;120074.00;0.40;208.21;0.00;0.00;0.62;;;;;30.80;1.00;;;;;;2277425;61;921;-87
2023/08/24 09:40:48;298403.00;0.99;515.17;0.00;0.00;0.62;;;;;30.70;1.00;;;;;;2277359;61;1720;-87
2023/08/24 09:43:15;104013.00;0.35;180.50;0.00;0.00;0.62;;;;;30.70;1.00;;;;;;2277354;61;1056;-88
2023/08/24 09:45:51;241629.00;0.81;417.55;0.00;0.00;0.62;;;;;30.60;1.00;;;;;;2277245;61;1352;-86
2023/08/24 09:48:18;223421.00;0.74;386.23;0.00;0.00;0.62;;;;;30.60;1.00;;;;;;2277139;61;1931;-87
2023/08/24 09:50:47;137023.00;0.46;237.44;0.00;0.00;0.62;;;;;30.60;1.00;;;;;;2277358;61;1150;-88
2023/08/24 09:53:18;191442.00;0.64;331.19;26158.00;0.09;45.93;;;;;30.40;1.00;;;;;;2277322;61;977;-87
2023/08/24 09:55:55;445502.00;1.49;768.05;0.00;0.00;0.62;;;;;30.60;1.00;;;;;;2277372;61;1470;-87
2023/08/24 10:03:28;1171738.00;3.91;2039.20;0.00;0.00;0.62;;;;;31.50;1.00;;;;;;2278997;61;1392;-87
2023/08/24 10:05:58;269869.00;0.90;466.12;0.00;0.00;0.62;;;;;32.20;1.00;;;;;;2277193;61;1366;-87
2023/08/24 10:08:29;28195.00;0.09;49.46;0.00;0.00;0.62;;;;;32.20;1.00;;;;;;2277104;61;1934;-88